createdAt,value
2022-09-22T00:01:33.705Z,99.90
2022-09-22T00:04:06.069Z,99.90
2022-09-22T00:06:38.873Z,99.90
2022-09-22T00:09:09.407Z,99.90
2022-09-22T00:11:40.318Z,99.90
2022-09-22T00:14:10.934Z,99.90
2022-09-22T00:16:42.377Z,99.90
2022-09-22T00:19:16.225Z,99.90
2022-09-22T00:21:47.482Z,99.90
2022-09-22T00:24:16.867Z,99.90
2022-09-22T00:26:45.350Z,99.90
2022-09-22T00:29:14.346Z,99.90
2022-09-22T00:31:44.551Z,99.90
2022-09-22T00:34:17.005Z,99.90
2022-09-22T00:36:47.576Z,99.90
2022-09-22T00:39:17.333Z,99.90
2022-09-22T00:41:57.586Z,99.90
2022-09-22T00:44:38.585Z,99.90
2022-09-22T00:47:18.568Z,99.90
2022-09-22T00:49:51.809Z,99.90
2022-09-22T00:52:26.557Z,99.90
2022-09-22T00:54:58.240Z,99.90
2022-09-22T00:57:29.615Z,99.90
2022-09-22T00:59:58.693Z,99.90
2022-09-22T01:02:27.138Z,99.90
2022-09-22T01:04:55.502Z,99.90
2022-09-22T01:07:29.055Z,99.90
2022-09-22T01:09:58.013Z,99.90
2022-09-22T01:12:28.204Z,99.90
2022-09-22T01:15:14.672Z,99.90
2022-09-22T01:17:52.619Z,99.90
2022-09-22T01:20:41.793Z,99.90
2022-09-22T01:23:42.610Z,99.90
2022-09-22T01:26:42.967Z,99.90
2022-09-22T01:29:32.483Z,99.90
2022-09-22T01:32:10.751Z,99.90
2022-09-22T01:34:47.255Z,99.90
2022-09-22T01:37:23.189Z,99.90
2022-09-22T01:39:56.737Z,99.90
2022-09-22T01:42:31.515Z,99.90
2022-09-22T01:45:06.229Z,99.90
2022-09-22T01:47:40.738Z,99.90
2022-09-22T01:50:16.514Z,99.90
2022-09-22T01:52:45.795Z,99.90
2022-09-22T01:55:20.545Z,99.90
2022-09-22T01:57:54.575Z,99.90
2022-09-22T02:00:24.016Z,99.90
2022-09-22T02:02:59.183Z,99.90
2022-09-22T02:05:33.796Z,99.90
2022-09-22T02:08:05.294Z,99.90
2022-09-22T02:10:37.831Z,99.90
2022-09-22T02:13:06.190Z,99.90
2022-09-22T02:15:52.708Z,99.90
2022-09-22T02:18:27.196Z,99.90
2022-09-22T02:20:55.824Z,99.90
2022-09-22T02:23:24.188Z,99.90
2022-09-22T02:25:54.583Z,99.90
2022-09-22T02:28:25.049Z,99.90
2022-09-22T02:31:18.457Z,99.90
2022-09-22T02:33:47.152Z,99.90
2022-09-22T02:36:29.586Z,99.90
2022-09-22T02:39:04.808Z,99.90
2022-09-22T02:41:41.811Z,99.90
2022-09-22T02:44:16.816Z,99.90
2022-09-22T02:46:50.045Z,99.90
2022-09-22T02:49:21.081Z,99.90
2022-09-22T02:51:50.520Z,99.90
2022-09-22T02:54:18.821Z,99.90
2022-09-22T02:56:47.566Z,99.90
2022-09-22T02:59:15.953Z,99.90
2022-09-22T03:01:44.452Z,99.90
2022-09-22T03:04:13.062Z,99.90
2022-09-22T03:06:42.718Z,99.90
2022-09-22T03:09:11.055Z,99.90
2022-09-22T03:11:39.577Z,99.90
2022-09-22T03:14:07.845Z,99.90
2022-09-22T03:16:36.197Z,99.90
2022-09-22T03:19:04.994Z,99.90
2022-09-22T03:21:33.365Z,99.90
2022-09-22T03:24:03.373Z,99.90
2022-09-22T03:26:32.051Z,99.90
2022-09-22T03:29:00.370Z,99.90
2022-09-22T03:31:28.753Z,99.90
2022-09-22T03:33:57.297Z,99.90
2022-09-22T03:36:25.975Z,99.90
2022-09-22T03:38:54.418Z,99.90
2022-09-22T03:41:24.201Z,99.90
2022-09-22T03:43:52.960Z,99.90
2022-09-22T03:46:21.302Z,99.90
2022-09-22T03:48:49.953Z,99.90
2022-09-22T03:51:19.381Z,99.90
2022-09-22T03:53:47.545Z,99.90
2022-09-22T03:56:17.459Z,99.90
2022-09-22T03:58:47.223Z,99.90
2022-09-22T04:01:15.573Z,99.90
2022-09-22T04:03:44.250Z,99.90
2022-09-22T04:06:12.926Z,99.90
2022-09-22T04:08:41.497Z,99.90
2022-09-22T04:11:10.101Z,99.90
2022-09-22T04:13:41.555Z,99.90
2022-09-22T04:16:14.881Z,99.90
2022-09-22T04:18:43.270Z,99.90
2022-09-22T04:21:11.751Z,99.90
2022-09-22T04:23:40.263Z,99.90
2022-09-22T04:26:08.818Z,99.90
2022-09-22T04:28:37.134Z,99.90
2022-09-22T04:31:06.060Z,99.90
2022-09-22T04:33:36.049Z,99.90
2022-09-22T04:36:04.422Z,99.90
2022-09-22T04:38:33.015Z,99.90
2022-09-22T04:41:01.571Z,99.90
2022-09-22T04:43:31.162Z,99.90
2022-09-22T04:45:59.677Z,99.90
2022-09-22T04:48:28.150Z,99.90
2022-09-22T04:50:57.908Z,99.90
2022-09-22T04:53:26.612Z,99.90
2022-09-22T04:55:56.571Z,99.90
2022-09-22T04:58:25.030Z,99.90
2022-09-22T05:00:55.870Z,99.90
2022-09-22T05:03:24.379Z,99.90
2022-09-22T05:05:52.722Z,99.90
2022-09-22T05:08:22.690Z,99.90
2022-09-22T05:10:51.250Z,99.90
2022-09-22T05:13:19.710Z,99.90
2022-09-22T05:15:48.567Z,99.90
2022-09-22T05:18:16.969Z,99.90
2022-09-22T05:20:45.936Z,99.90
2022-09-22T05:23:14.490Z,99.90
2022-09-22T05:25:44.643Z,99.90
2022-09-22T05:28:13.594Z,99.90
2022-09-22T05:30:42.417Z,99.90
2022-09-22T05:33:10.768Z,99.90
2022-09-22T05:35:39.084Z,99.90
2022-09-22T05:38:07.742Z,99.90
2022-09-22T05:40:36.303Z,99.90
2022-09-22T05:43:06.080Z,99.90
2022-09-22T05:45:34.953Z,99.90
2022-09-22T05:48:03.481Z,99.90
2022-09-22T05:50:32.354Z,99.90
2022-09-22T05:53:05.905Z,99.90
2022-09-22T05:55:34.685Z,99.90
2022-09-22T05:58:05.145Z,99.90
2022-09-22T06:00:34.039Z,99.90
2022-09-22T06:03:02.532Z,99.90
2022-09-22T06:05:31.100Z,99.90
2022-09-22T06:08:02.898Z,99.90
2022-09-22T06:10:33.253Z,99.90
2022-09-22T06:13:02.721Z,99.90
2022-09-22T06:15:33.982Z,99.90
2022-09-22T06:18:02.923Z,99.90
2022-09-22T06:20:31.975Z,99.90
2022-09-22T06:23:00.377Z,99.90
2022-09-22T06:25:29.702Z,99.90
2022-09-22T06:28:04.802Z,99.90
2022-09-22T06:30:35.734Z,99.90
2022-09-22T06:33:04.531Z,99.90
2022-09-22T06:35:35.613Z,99.90
2022-09-22T06:38:04.626Z,99.90
2022-09-22T06:40:36.441Z,99.90
2022-09-22T06:43:07.639Z,99.90
2022-09-22T06:45:37.784Z,99.90
2022-09-22T06:48:10.164Z,99.90
2022-09-22T06:50:41.226Z,99.90
2022-09-22T06:53:12.545Z,99.90
2022-09-22T06:55:43.252Z,99.90
2022-09-22T06:58:12.837Z,99.90
2022-09-22T07:00:44.288Z,99.90
2022-09-22T07:03:19.647Z,99.90
2022-09-22T07:05:55.492Z,99.90
2022-09-22T07:08:24.927Z,99.90
2022-09-22T07:10:55.204Z,99.90
2022-09-22T07:13:24.049Z,99.90
2022-09-22T07:15:55.414Z,99.90
2022-09-22T07:18:24.037Z,99.90
2022-09-22T07:20:52.309Z,99.90
2022-09-22T07:23:21.434Z,99.90
2022-09-22T07:25:56.492Z,99.90
2022-09-22T07:28:25.919Z,99.90
2022-09-22T07:30:57.367Z,99.90
2022-09-22T07:33:25.987Z,99.90
2022-09-22T07:36:04.735Z,99.90
2022-09-22T07:38:36.420Z,99.90
2022-09-22T07:41:06.997Z,99.90
2022-09-22T07:43:36.352Z,99.90
2022-09-22T07:46:06.297Z,99.90
2022-09-22T07:48:37.832Z,99.90
2022-09-22T07:51:12.910Z,99.90
2022-09-22T07:53:45.875Z,99.90
2022-09-22T07:56:16.214Z,99.90
2022-09-22T07:58:50.006Z,99.90
2022-09-22T08:01:21.099Z,99.90
2022-09-22T08:03:50.545Z,99.90
2022-09-22T08:06:23.563Z,99.90
2022-09-22T08:08:56.663Z,99.90
2022-09-22T08:11:26.744Z,99.90
2022-09-22T08:13:57.182Z,99.90
2022-09-22T08:16:29.271Z,99.90
2022-09-22T08:18:59.315Z,99.90
2022-09-22T08:21:30.986Z,99.90
2022-09-22T08:24:00.937Z,99.90
2022-09-22T08:26:29.534Z,99.90
2022-09-22T08:28:59.032Z,99.70
2022-09-22T08:31:29.194Z,99.40
2022-09-22T08:33:57.769Z,99.00
2022-09-22T08:36:28.084Z,99.00
2022-09-22T08:38:57.925Z,98.70
2022-09-22T08:41:38.377Z,97.90
2022-09-22T08:44:22.333Z,97.60
2022-09-22T08:46:54.779Z,97.20
2022-09-22T08:49:44.356Z,97.30
2022-09-22T08:52:20.863Z,97.60
2022-09-22T08:54:50.097Z,97.80
2022-09-22T08:57:33.231Z,98.00
2022-09-22T09:00:06.476Z,98.00
2022-09-22T09:02:42.894Z,97.80
2022-09-22T09:05:55.997Z,97.80
2022-09-22T09:08:43.827Z,97.60
2022-09-22T09:14:12.216Z,97.60
2022-09-22T09:16:49.003Z,97.80
2022-09-22T09:19:23.197Z,97.50
2022-09-22T09:21:55.180Z,97.30
2022-09-22T09:27:24.272Z,96.90
2022-09-22T09:30:02.963Z,96.50
2022-09-22T09:32:38.849Z,96.50
2022-09-22T09:35:14.850Z,96.20
2022-09-22T09:37:46.170Z,95.80
2022-09-22T09:40:18.480Z,95.60
2022-09-22T09:42:51.080Z,95.60
2022-09-22T09:45:25.484Z,95.60
2022-09-22T09:48:07.668Z,95.30
2022-09-22T09:50:37.927Z,94.80
2022-09-22T09:53:08.681Z,94.60
2022-09-22T09:55:37.146Z,94.70
2022-09-22T09:58:08.425Z,94.50
2022-09-22T10:00:51.767Z,94.20
2022-09-22T10:03:27.984Z,94.30
2022-09-22T10:06:00.695Z,94.20
2022-09-22T10:08:35.166Z,93.70
2022-09-22T10:11:05.337Z,93.60
2022-09-22T10:13:36.422Z,93.60
2022-09-22T10:16:19.227Z,93.60
2022-09-22T10:18:48.712Z,93.70
2022-09-22T10:21:20.705Z,93.80
2022-09-22T10:23:51.733Z,94.20
2022-09-22T10:26:23.175Z,94.40
2022-09-22T10:29:18.215Z,94.60
2022-09-22T10:32:14.955Z,95.30
2022-09-22T10:37:25.967Z,95.50
2022-09-22T10:39:55.790Z,95.50
2022-09-22T10:42:33.471Z,95.20
2022-09-22T10:45:05.709Z,95.00
2022-09-22T10:47:51.418Z,94.40
2022-09-22T10:50:45.903Z,93.90
2022-09-22T10:53:36.528Z,93.40
2022-09-22T10:56:14.019Z,93.40
2022-09-22T10:59:21.288Z,93.20
2022-09-22T11:02:00.415Z,93.30
2022-09-22T11:04:57.738Z,93.10
2022-09-22T11:08:07.399Z,93.00
2022-09-22T11:11:01.946Z,93.00
2022-09-22T11:13:42.009Z,93.10
2022-09-22T11:16:34.541Z,93.10
2022-09-22T11:19:24.788Z,92.90
2022-09-22T11:22:13.418Z,92.80
2022-09-22T11:24:56.004Z,93.00
2022-09-22T11:27:37.635Z,93.10
2022-09-22T11:30:16.881Z,93.30
2022-09-22T11:33:05.737Z,93.50
2022-09-22T11:35:48.406Z,93.60
2022-09-22T11:38:30.547Z,94.00
2022-09-22T11:41:20.557Z,94.60
2022-09-22T11:44:34.419Z,95.30
2022-09-22T11:47:24.073Z,96.10
2022-09-22T11:50:11.680Z,96.70
2022-09-22T11:52:58.364Z,97.20
2022-09-22T11:55:36.549Z,97.60
2022-09-22T11:58:12.649Z,97.80
2022-09-22T12:00:47.221Z,97.90
2022-09-22T12:03:21.348Z,98.00
2022-09-22T12:05:54.414Z,98.10
2022-09-22T12:08:26.835Z,97.50
2022-09-22T12:10:56.505Z,97.20
2022-09-22T12:13:27.356Z,97.20
2022-09-22T12:16:07.025Z,97.10
2022-09-22T12:18:44.645Z,97.20
2022-09-22T12:21:29.465Z,96.60
2022-09-22T12:24:02.086Z,95.70
2022-09-22T12:26:33.070Z,95.30
2022-09-22T12:29:04.642Z,95.00
2022-09-22T12:31:36.092Z,94.70
2022-09-22T12:34:15.526Z,94.30
2022-09-22T12:36:44.440Z,94.20
2022-09-22T12:39:18.915Z,93.80
2022-09-22T12:41:52.351Z,93.60
2022-09-22T12:44:24.135Z,93.60
2022-09-22T12:46:54.771Z,93.60
2022-09-22T12:49:24.579Z,93.70
2022-09-22T12:51:53.358Z,93.70
2022-09-22T12:54:43.057Z,93.80
2022-09-22T12:57:29.464Z,93.70
2022-09-22T13:00:08.390Z,93.50
2022-09-22T13:02:43.551Z,93.60
2022-09-22T13:05:36.543Z,93.80
2022-09-22T13:08:05.583Z,94.00
2022-09-22T13:10:59.645Z,94.30
2022-09-22T13:13:37.707Z,94.40
2022-09-22T13:16:25.954Z,94.50
2022-09-22T13:19:00.532Z,94.40
2022-09-22T13:21:31.306Z,94.30
2022-09-22T13:24:01.724Z,94.10
2022-09-22T13:26:32.468Z,94.40
2022-09-22T13:29:07.115Z,94.80
2022-09-22T13:31:44.233Z,95.10
2022-09-22T13:34:29.168Z,94.90
2022-09-22T13:37:02.000Z,94.90
2022-09-22T13:39:35.135Z,94.80
2022-09-22T13:42:08.319Z,94.90
2022-09-22T13:44:41.925Z,95.10
2022-09-22T13:47:25.120Z,95.20
2022-09-22T13:49:56.342Z,95.10
2022-09-22T13:52:29.927Z,95.20
2022-09-22T13:55:01.723Z,95.20
2022-09-22T13:57:32.557Z,95.40
2022-09-22T14:00:02.249Z,95.70
2022-09-22T14:02:32.423Z,96.00
2022-09-22T14:05:04.125Z,96.10
2022-09-22T14:07:49.474Z,96.10
2022-09-22T14:10:28.020Z,96.20
2022-09-22T14:12:57.007Z,96.30
2022-09-22T14:15:43.599Z,96.60
2022-09-22T14:18:18.205Z,96.90
2022-09-22T14:20:46.687Z,97.50
2022-09-22T14:23:23.185Z,98.00
2022-09-22T14:25:51.681Z,98.60
2022-09-22T14:28:24.997Z,99.10
2022-09-22T14:30:53.739Z,99.50
2022-09-22T14:33:25.988Z,99.90
2022-09-22T14:36:01.921Z,99.90
2022-09-22T14:38:37.510Z,99.90
2022-09-22T14:41:23.235Z,99.90
2022-09-22T14:43:53.112Z,99.90
2022-09-22T14:46:25.592Z,99.90
2022-09-22T14:48:55.343Z,99.90
2022-09-22T14:51:26.187Z,99.90
2022-09-22T14:54:01.635Z,99.90
2022-09-22T14:56:34.110Z,99.90
2022-09-22T14:59:26.160Z,99.90
2022-09-22T15:02:13.614Z,99.90
2022-09-22T15:04:47.532Z,99.90
2022-09-22T15:07:24.758Z,99.90
2022-09-22T15:09:57.279Z,99.90
2022-09-22T15:12:37.880Z,99.90
2022-09-22T15:15:20.474Z,99.90
2022-09-22T15:18:08.044Z,99.90
2022-09-22T15:20:41.153Z,99.90
2022-09-22T15:23:22.015Z,99.90
2022-09-22T15:25:52.194Z,99.90
2022-09-22T15:28:23.772Z,99.90
2022-09-22T15:30:53.563Z,99.90
2022-09-22T15:33:22.803Z,99.90
2022-09-22T15:35:56.475Z,99.90
2022-09-22T15:38:27.941Z,99.90
2022-09-22T15:40:58.275Z,99.90
2022-09-22T15:43:30.895Z,99.90
2022-09-22T15:46:02.318Z,99.90
2022-09-22T15:48:32.997Z,99.90
2022-09-22T15:51:06.033Z,99.90
2022-09-22T15:53:35.863Z,99.90
2022-09-22T15:56:07.386Z,99.90
2022-09-22T15:58:38.036Z,99.90
2022-09-22T16:01:07.945Z,99.90
2022-09-22T16:03:41.066Z,99.90
2022-09-22T16:06:12.908Z,99.90
2022-09-22T16:08:44.619Z,99.90
2022-09-22T16:11:16.263Z,99.90
2022-09-22T16:13:45.155Z,99.90
2022-09-22T16:16:13.646Z,99.90
2022-09-22T16:18:42.361Z,99.90
2022-09-22T16:21:20.745Z,99.90
2022-09-22T16:23:51.266Z,99.90
2022-09-22T16:26:21.495Z,99.90
2022-09-22T16:28:49.886Z,99.90
2022-09-22T16:31:19.148Z,99.90
2022-09-22T16:33:54.061Z,99.90
2022-09-22T16:36:22.734Z,99.90
2022-09-22T16:38:51.432Z,99.90
2022-09-22T16:41:29.513Z,99.90
2022-09-22T16:43:59.286Z,99.90
2022-09-22T16:46:30.214Z,99.90
2022-09-22T16:49:00.795Z,99.90
2022-09-22T16:51:30.023Z,99.90
2022-09-22T16:53:58.720Z,99.90
2022-09-22T16:56:30.763Z,99.90
2022-09-22T16:59:01.333Z,99.90
2022-09-22T17:01:32.113Z,99.90
2022-09-22T17:04:00.639Z,99.90
2022-09-22T17:06:29.445Z,99.90
2022-09-22T17:08:59.989Z,99.90
2022-09-22T17:11:33.114Z,99.90
2022-09-22T17:14:04.655Z,99.90
2022-09-22T17:16:36.399Z,99.90
2022-09-22T17:19:06.856Z,99.90
2022-09-22T17:21:37.396Z,99.90
2022-09-22T17:24:09.314Z,99.90
2022-09-22T17:26:41.864Z,99.90
2022-09-22T17:29:11.027Z,99.90
2022-09-22T17:31:41.251Z,99.90
2022-09-22T17:34:10.589Z,99.90
2022-09-22T17:36:39.687Z,99.90
2022-09-22T17:39:10.559Z,99.90
2022-09-22T17:41:45.492Z,99.90
2022-09-22T17:44:19.210Z,99.90
2022-09-22T17:47:01.816Z,99.90
2022-09-22T17:49:47.496Z,99.90
2022-09-22T17:52:35.057Z,99.90
2022-09-22T17:55:08.167Z,99.90
2022-09-22T17:57:41.126Z,99.90
2022-09-22T18:00:13.113Z,99.90
2022-09-22T18:02:41.723Z,99.90
2022-09-22T18:05:12.921Z,99.90
2022-09-22T18:07:42.103Z,99.90
2022-09-22T18:10:12.627Z,99.90
2022-09-22T18:12:42.826Z,99.90
2022-09-22T18:15:13.977Z,99.90
2022-09-22T18:17:43.753Z,99.90
2022-09-22T18:20:14.085Z,99.90
2022-09-22T18:22:47.730Z,99.90
2022-09-22T18:25:19.509Z,99.90
2022-09-22T18:27:49.491Z,99.90
2022-09-22T18:30:19.879Z,99.90
2022-09-22T18:32:49.386Z,99.90
2022-09-22T18:35:18.571Z,99.90
2022-09-22T18:37:47.833Z,99.90
2022-09-22T18:40:17.169Z,99.90
2022-09-22T18:42:46.375Z,99.90
2022-09-22T18:45:17.007Z,99.90
2022-09-22T18:47:45.368Z,99.90
2022-09-22T18:50:14.280Z,99.90
2022-09-22T18:52:46.700Z,99.90
2022-09-22T18:55:18.830Z,99.90
2022-09-22T18:57:48.467Z,99.90
2022-09-22T19:00:20.922Z,99.90
2022-09-22T19:02:50.437Z,99.90
2022-09-22T19:05:19.602Z,99.90
2022-09-22T19:07:48.406Z,99.90
2022-09-22T19:10:21.782Z,99.90
2022-09-22T19:12:50.923Z,99.90
2022-09-22T19:15:21.360Z,99.90
2022-09-22T19:17:51.048Z,99.90
2022-09-22T19:20:23.348Z,99.90
2022-09-22T19:22:54.002Z,99.90
2022-09-22T19:25:23.558Z,99.90
2022-09-22T19:27:53.557Z,99.90
2022-09-22T19:30:27.552Z,99.90
2022-09-22T19:32:59.144Z,99.90
2022-09-22T19:35:29.473Z,99.90
2022-09-22T19:37:58.013Z,99.90
2022-09-22T19:40:26.950Z,99.90
2022-09-22T19:42:56.009Z,99.90
2022-09-22T19:45:27.485Z,99.90
2022-09-22T19:47:56.977Z,99.90
2022-09-22T19:50:27.394Z,99.90
2022-09-22T19:52:56.213Z,99.90
2022-09-22T19:55:24.893Z,99.90
2022-09-22T19:57:54.077Z,99.90
2022-09-22T20:00:26.229Z,99.90
2022-09-22T20:02:59.358Z,99.90
2022-09-22T20:05:30.559Z,99.90
2022-09-22T20:07:59.561Z,99.90
2022-09-22T20:10:28.803Z,99.90
2022-09-22T20:12:57.183Z,99.90
2022-09-22T20:15:26.494Z,99.90
2022-09-22T20:17:56.913Z,99.90
2022-09-22T20:20:28.748Z,99.90
2022-09-22T20:23:00.529Z,99.90
2022-09-22T20:25:31.277Z,99.90
2022-09-22T20:28:00.843Z,99.90
2022-09-22T20:30:29.472Z,99.90
2022-09-22T20:32:59.762Z,99.90
2022-09-22T20:35:28.520Z,99.90
2022-09-22T20:37:58.243Z,99.90
2022-09-22T20:40:27.943Z,99.90
2022-09-22T20:42:56.875Z,99.90
2022-09-22T20:45:25.401Z,99.90
2022-09-22T20:47:54.267Z,99.90
2022-09-22T20:50:24.350Z,99.90
2022-09-22T20:52:52.768Z,99.90
2022-09-22T20:55:22.223Z,99.90
2022-09-22T20:57:50.973Z,99.90
2022-09-22T21:00:19.585Z,99.90
2022-09-22T21:02:48.526Z,99.90
2022-09-22T21:05:17.395Z,99.90
2022-09-22T21:07:47.293Z,99.90
2022-09-22T21:10:41.364Z,99.90
2022-09-22T21:13:10.046Z,99.90
2022-09-22T21:15:39.223Z,99.90
2022-09-22T21:18:07.873Z,99.90
2022-09-22T21:20:36.579Z,99.90
2022-09-22T21:23:06.444Z,99.90
2022-09-22T21:25:35.020Z,99.90
2022-09-22T21:28:04.232Z,99.90
2022-09-22T21:30:32.924Z,99.90
2022-09-22T21:33:02.760Z,99.90
2022-09-22T21:35:31.612Z,99.90
2022-09-22T21:38:00.001Z,99.90
2022-09-22T21:40:29.874Z,99.90
2022-09-22T21:42:58.581Z,99.90
2022-09-22T21:45:27.067Z,99.90
2022-09-22T21:47:55.566Z,99.90
2022-09-22T21:50:24.287Z,99.90
2022-09-22T21:52:52.875Z,99.90
2022-09-22T21:55:21.409Z,99.90
2022-09-22T21:57:53.518Z,99.90
2022-09-22T22:01:17.141Z,99.90
2022-09-22T22:03:48.543Z,99.90
2022-09-22T22:06:19.397Z,99.90
2022-09-22T22:08:51.101Z,99.90
2022-09-22T22:11:22.345Z,99.90
2022-09-22T22:13:54.103Z,99.90
2022-09-22T22:16:24.807Z,99.90
2022-09-22T22:18:53.745Z,99.90
2022-09-22T22:21:23.859Z,99.90
2022-09-22T22:23:54.209Z,99.90
2022-09-22T22:26:26.349Z,99.90
2022-09-22T22:28:56.199Z,99.90
2022-09-22T22:31:25.416Z,99.90
2022-09-22T22:33:53.938Z,99.90
2022-09-22T22:36:24.144Z,99.90
2022-09-22T22:38:53.819Z,99.90
2022-09-22T22:41:22.161Z,99.90
2022-09-22T22:43:51.153Z,99.90
2022-09-22T22:46:21.476Z,99.90
2022-09-22T22:48:50.117Z,99.90
2022-09-22T22:51:21.745Z,99.90
2022-09-22T22:53:50.570Z,99.90
2022-09-22T22:56:20.407Z,99.90
2022-09-22T22:58:50.126Z,99.90
2022-09-22T23:01:22.447Z,99.90
2022-09-22T23:03:53.217Z,99.90
2022-09-22T23:06:23.414Z,99.90
2022-09-22T23:08:52.656Z,99.90
2022-09-22T23:11:23.965Z,99.90
2022-09-22T23:13:54.413Z,99.90
2022-09-22T23:16:25.627Z,99.90
2022-09-22T23:18:54.677Z,99.90
2022-09-22T23:21:24.167Z,99.90
2022-09-22T23:23:52.449Z,99.90
2022-09-22T23:26:21.372Z,99.90
2022-09-22T23:28:49.796Z,99.90
2022-09-22T23:31:21.545Z,99.90
2022-09-22T23:33:52.886Z,99.90
2022-09-22T23:36:22.777Z,99.90
2022-09-22T23:38:54.556Z,99.90
2022-09-22T23:41:23.208Z,99.90
2022-09-22T23:43:52.073Z,99.90
2022-09-22T23:46:21.231Z,99.90
2022-09-22T23:48:51.222Z,99.90
2022-09-22T23:51:20.038Z,99.90
2022-09-22T23:53:48.477Z,99.90
2022-09-22T23:56:16.729Z,99.90
2022-09-22T23:58:45.449Z,99.90
